aviador You're here:

SAWG Decoded Metar

RIO GALLEGOS in ARGENTINA
Report Time2017-11-22 23:00:00
UTC Time2017-11-22 23:37:52
Flight Rules vfr VFR
Wind250° at 33 Gusting to 44 kt
W.Decomp.*RWY 25: 32.3 kt HW 6.9 kt LCW
W.Rank250° ranks 2
Current wind is above 250° avg. (15.5)
Visibility9999 m
Phenomena:N/A
Clouds:Few 030 Hf
Expected CloudBase > 5,200 ft AGL from Temp-Dew spread
CeilingNone
Temp11°C (ISA -4)
Dew Point-2°C (41% RH)
AAT-3.1°C
QNH0996 hPa
Density Alt256 ft
Elevation62 ft
Report Wrong Elevation
Raw Report
METAR SAWG 222300Z 25033G44KT 9999 FEW030 11/M02 Q0996=

Extra information for SAWG:More info

Metar Taf Metar & Taf Last 4 Metars F.Rules Stats Wind Profile Meteogram Temp Stats Airport Information Weather charts Add Link Nearby VenuesMetar ALERT Operation Metar Decoded Social comments